Batajnica Air Base


Codes: LYBT/BJY
Name: Batajnica Air Base
City: Batajnica
Country: Serbia
Elevation: 265 ft.
Wikipedia:

Photos at Batajnica Air Base


   Photos courtesy of SpottingLog. You can add your own sightings and photos by signing up for a free trial today.



No photos found.

Weather at Batajnica Air Base


Time (UTC)DescriptionTempratureWindCloud coverageVisibilityPressureHumidity
21-Jun-2024 12:00Clear Sky34°C2 mph, SE0%10000m1016hPa49%
21-Jun-2024 15:00Clear Sky35°C4 mph, N1%10000m1015hPa41%
21-Jun-2024 18:00Clear Sky32°C4 mph, NE1%10000m1013hPa45%
21-Jun-2024 21:00Clear Sky27°C7 mph, SE0%10000m1011hPa52%
22-Jun-2024 00:00Few Clouds25°C4 mph, SE18%10000m1010hPa58%
22-Jun-2024 03:00Overcast Clouds24°C4 mph, SE96%10000m1009hPa62%
22-Jun-2024 06:00Scattered Clouds30°C7 mph, SE48%10000m1009hPa49%
22-Jun-2024 09:00Clear Sky36°C2 mph, S3%10000m1009hPa33%
22-Jun-2024 12:00Clear Sky39°C11 mph, NW4%10000m1006hPa28%
22-Jun-2024 15:00Moderate Rain26°C27 mph, SW69%10000m1004hPa65%
22-Jun-2024 18:00Heavy Intensity Rain21°C7 mph, SW84%10000m1008hPa79%
22-Jun-2024 21:00Overcast Clouds20°C7 mph, NE92%10000m1010hPa84%
23-Jun-2024 00:00Broken Clouds19°C2 mph, N74%10000m1010hPa91%
23-Jun-2024 03:00Clear Sky19°C7 mph, W0%10000m1010hPa93%
23-Jun-2024 06:00Clear Sky23°C4 mph, W0%10000m1011hPa75%
23-Jun-2024 09:00Clear Sky27°C4 mph, NW0%10000m1010hPa56%
23-Jun-2024 12:00Clear Sky30°C7 mph, N8%10000m1010hPa45%
23-Jun-2024 15:00Clear Sky31°C9 mph, NW9%10000m1009hPa42%
23-Jun-2024 18:00Clear Sky27°C11 mph, NW6%10000m1009hPa56%
23-Jun-2024 21:00Light Rain22°C7 mph, N64%10000m1011hPa80%
24-Jun-2024 00:00Light Rain21°C4 mph, NW48%10000m1011hPa86%
24-Jun-2024 03:00Clear Sky20°C4 mph, N10%10000m1012hPa87%
24-Jun-2024 06:00Few Clouds23°C4 mph, NE21%10000m1013hPa64%
24-Jun-2024 09:00Clear Sky29°C7 mph, N4%10000m1012hPa45%
24-Jun-2024 12:00Clear Sky32°C9 mph, NE7%10000m1011hPa35%
24-Jun-2024 15:00Overcast Clouds31°C7 mph, NE100%10000m1011hPa36%
24-Jun-2024 18:00Broken Clouds26°C4 mph, NE77%10000m1011hPa53%
24-Jun-2024 21:00Overcast Clouds24°C7 mph, NE100%10000m1013hPa54%
25-Jun-2024 00:00Broken Clouds20°C2 mph, NE82%10000m1013hPa64%
25-Jun-2024 03:00Clear Sky18°C4 mph, N3%10000m1013hPa68%
25-Jun-2024 06:00Clear Sky23°C4 mph, NE2%10000m1013hPa56%
25-Jun-2024 09:00Scattered Clouds29°C7 mph, E38%10000m1012hPa42%
25-Jun-2024 12:00Scattered Clouds32°C7 mph, E42%10000m1011hPa33%
25-Jun-2024 15:00Broken Clouds31°C2 mph, W72%10000m1009hPa38%
25-Jun-2024 18:00Overcast Clouds24°C4 mph, NW86%10000m1010hPa67%
25-Jun-2024 21:00Light Rain21°C4 mph, S46%10000m1010hPa79%
26-Jun-2024 00:00Light Rain19°C4 mph, S57%10000m1009hPa86%
26-Jun-2024 03:00Broken Clouds20°C4 mph, E79%10000m1009hPa82%
26-Jun-2024 06:00Broken Clouds23°C7 mph, E82%10000m1009hPa70%
26-Jun-2024 09:00Overcast Clouds28°C11 mph, SE88%10000m1008hPa55%